Time;durP1;ratioP1;P1;durP2;ratioP2;P2;SDS_P1;SDS_P2;PMS_P1;PMS_P2;Temp;Humidity;BMP_temperature;BMP_pressure;BME280_temperature;BME280_humidity;BME280_pressure;Samples;Min_cycle;Max_cycle;Signal;HPM_P1;HPM_P2
2023/03/07 00:01:37;;;;;;;6.70;4.55;;;;;;;;;;5096932;28;20561;-78
2023/03/07 00:04:03;;;;;;;8.30;5.07;;;;;;;;;;5096918;28;20262;-78
2023/03/07 00:06:29;;;;;;;5.13;4.07;;;;;;;;;;5097112;28;20455;-79
2023/03/07 00:08:56;;;;;;;8.52;5.65;;;;;;;;;;5096937;28;20177;-78
2023/03/07 00:11:22;;;;;;;6.60;4.10;;;;;;;;;;5096687;28;20172;-78
2023/03/07 00:13:48;;;;;;;6.68;4.85;;;;;;;;;;5097250;28;20179;-79
2023/03/07 00:16:15;;;;;;;8.88;5.50;;;;;;;;;;5096713;28;20536;-78
2023/03/07 00:18:42;;;;;;;5.45;4.82;;;;;;;;;;5097181;28;20179;-79
2023/03/07 00:21:10;;;;;;;6.72;4.90;;;;;;;;;;5097131;28;20210;-79
2023/03/07 00:23:37;;;;;;;7.47;5.40;;;;;;;;;;5097129;28;20175;-79
2023/03/07 00:26:22;;;;;;;10.55;6.75;;;;;;;;;;5096590;28;20172;-79
2023/03/07 00:28:49;;;;;;;9.18;4.75;;;;;;;;;;5096821;28;20170;-78
2023/03/07 00:31:15;;;;;;;6.53;4.30;;;;;;;;;;5096563;28;20272;-79
2023/03/07 00:33:42;;;;;;;9.38;5.88;;;;;;;;;;5096435;28;20169;-79
2023/03/07 00:36:15;;;;;;;8.93;5.60;;;;;;;;;;5096688;28;20179;-79
2023/03/07 00:38:42;;;;;;;6.88;4.82;;;;;;;;;;5096159;28;20564;-78
2023/03/07 00:41:09;;;;;;;9.00;6.85;;;;;;;;;;5096619;28;20196;-79
2023/03/07 00:43:35;;;;;;;7.15;5.32;;;;;;;;;;5096498;28;20229;-79
2023/03/07 00:46:02;;;;;;;5.82;4.50;;;;;;;;;;5096074;28;20203;-79
2023/03/07 00:48:28;;;;;;;8.75;5.95;;;;;;;;;;5096098;28;20183;-79
2023/03/07 00:50:54;;;;;;;5.88;4.65;;;;;;;;;;5096460;28;20616;-80
2023/03/07 00:53:21;;;;;;;6.13;4.32;;;;;;;;;;5095789;28;20184;-81
2023/03/07 00:55:59;;;;;;;5.95;4.05;;;;;;;;;;5095944;28;20177;-81
2023/03/07 00:58:26;;;;;;;6.03;4.22;;;;;;;;;;5095777;28;20179;-79
2023/03/07 01:00:52;;;;;;;3.83;3.45;;;;;;;;;;5096376;28;20164;-79
2023/03/07 01:03:18;;;;;;;9.10;5.90;;;;;;;;;;5096430;28;20261;-79
2023/03/07 01:05:44;;;;;;;6.97;4.03;;;;;;;;;;5095543;28;20239;-79
2023/03/07 01:08:10;;;;;;;5.03;4.47;;;;;;;;;;5078097;28;20171;-79
2023/03/07 01:10:37;;;;;;;6.75;4.72;;;;;;;;;;5095724;28;20226;-79
2023/03/07 01:13:03;;;;;;;5.15;3.97;;;;;;;;;;5096344;28;20642;-79
2023/03/07 01:15:29;;;;;;;7.03;4.35;;;;;;;;;;5077698;28;20577;-78
2023/03/07 01:17:55;;;;;;;5.75;4.22;;;;;;;;;;5095902;28;20651;-78
2023/03/07 01:20:21;;;;;;;6.85;4.72;;;;;;;;;;5078573;28;20172;-79
2023/03/07 01:22:47;;;;;;;3.95;3.13;;;;;;;;;;5096135;28;20214;-78
2023/03/07 01:25:13;;;;;;;5.20;4.47;;;;;;;;;;5095939;28;20198;-79
2023/03/07 01:27:39;;;;;;;6.70;4.60;;;;;;;;;;5095689;28;20267;-79
2023/03/07 01:30:06;;;;;;;4.25;3.42;;;;;;;;;;5095568;28;20175;-78
2023/03/07 01:32:32;;;;;;;6.45;3.90;;;;;;;;;;5096032;28;20173;-79
2023/03/07 01:34:58;;;;;;;5.50;4.20;;;;;;;;;;5095883;28;20562;-78
2023/03/07 01:37:24;;;;;;;5.30;4.17;;;;;;;;;;5096340;28;20203;-78
2023/03/07 01:39:53;;;;;;;6.00;4.75;;;;;;;;;;5096099;28;20407;-78
2023/03/07 01:42:20;;;;;;;5.20;3.33;;;;;;;;;;5096354;28;20278;-78
2023/03/07 01:45:05;;;;;;;7.72;5.20;;;;;;;;;;5095549;28;20179;-78
2023/03/07 01:47:31;;;;;;;8.73;5.05;;;;;;;;;;5095899;28;20601;-78
2023/03/07 01:49:58;;;;;;;6.90;4.18;;;;;;;;;;5096062;28;20184;-78
2023/03/07 01:52:28;;;;;;;6.65;4.65;;;;;;;;;;5095581;28;20640;-78
2023/03/07 01:54:55;;;;;;;6.20;4.60;;;;;;;;;;5096361;28;20190;-79
2023/03/07 01:57:24;;;;;;;7.00;4.13;;;;;;;;;;5095903;28;20228;-78
2023/03/07 01:59:51;;;;;;;9.13;5.22;;;;;;;;;;5096516;28;20528;-77
2023/03/07 02:02:21;;;;;;;6.25;5.10;;;;;;;;;;5096409;28;20238;-78
2023/03/07 02:04:53;;;;;;;7.05;5.13;;;;;;;;;;5095960;28;20228;-78
2023/03/07 02:07:20;;;;;;;6.82;5.63;;;;;;;;;;5096585;28;20225;-77
2023/03/07 02:09:47;;;;;;;7.47;5.47;;;;;;;;;;5096125;28;20517;-77
2023/03/07 02:12:14;;;;;;;6.10;5.18;;;;;;;;;;5096613;28;20547;-77
2023/03/07 02:14:43;;;;;;;7.68;5.65;;;;;;;;;;5095722;28;20168;-78
2023/03/07 02:17:09;;;;;;;8.70;6.50;;;;;;;;;;5098392;28;20168;-78
2023/03/07 02:19:41;;;;;;;7.25;5.10;;;;;;;;;;5099320;28;20178;-78
2023/03/07 02:22:07;;;;;;;7.38;5.72;;;;;;;;;;5099953;28;20206;-79
2023/03/07 02:24:48;;;;;;;5.63;4.78;;;;;;;;;;5099409;28;20179;-77
2023/03/07 02:27:14;;;;;;;8.63;6.35;;;;;;;;;;5099980;28;20179;-77
2023/03/07 02:29:40;;;;;;;11.03;7.30;;;;;;;;;;5099324;28;20176;-77
2023/03/07 02:32:07;;;;;;;7.90;6.15;;;;;;;;;;5081828;28;20435;-78
2023/03/07 02:34:33;;;;;;;7.40;6.32;;;;;;;;;;5099889;28;20190;-77
2023/03/07 02:37:10;;;;;;;7.07;5.18;;;;;;;;;;5100236;28;20190;-77
2023/03/07 02:39:36;;;;;;;8.40;6.88;;;;;;;;;;5099340;28;20679;-77
2023/03/07 02:42:06;;;;;;;8.52;6.30;;;;;;;;;;5099817;28;20212;-78
2023/03/07 02:44:32;;;;;;;7.50;6.07;;;;;;;;;;5098957;28;20237;-78
2023/03/07 02:46:58;;;;;;;8.45;6.10;;;;;;;;;;5099476;28;20187;-77
2023/03/07 02:49:24;;;;;;;6.83;5.30;;;;;;;;;;5081008;28;20210;-77
2023/03/07 02:51:50;;;;;;;8.93;6.57;;;;;;;;;;5098508;28;20421;-78
2023/03/07 02:54:16;;;;;;;7.65;5.72;;;;;;;;;;5081323;28;20181;-77
2023/03/07 02:56:42;;;;;;;9.38;6.30;;;;;;;;;;5098697;28;20179;-78
2023/03/07 02:59:08;;;;;;;7.82;6.35;;;;;;;;;;5099098;28;20233;-78
2023/03/07 03:01:34;;;;;;;5.88;3.97;;;;;;;;;;5098368;28;20230;-78
2023/03/07 03:04:00;;;;;;;7.47;6.45;;;;;;;;;;5098523;28;20185;-78
2023/03/07 03:06:26;;;;;;;6.20;4.90;;;;;;;;;;5080454;28;20225;-80
2023/03/07 03:08:52;;;;;;;10.23;6.47;;;;;;;;;;5099660;28;20176;-78
2023/03/07 03:11:18;;;;;;;6.97;5.53;;;;;;;;;;5098634;28;20534;-78
2023/03/07 03:13:44;;;;;;;7.32;5.75;;;;;;;;;;5098532;28;20182;-78
2023/03/07 03:16:10;;;;;;;6.78;4.50;;;;;;;;;;5098612;28;20196;-78
2023/03/07 03:18:37;;;;;;;7.78;6.15;;;;;;;;;;5098167;28;20584;-78
2023/03/07 03:21:07;;;;;;;6.32;4.95;;;;;;;;;;5098507;28;20573;-78
2023/03/07 03:23:33;;;;;;;6.82;5.38;;;;;;;;;;5098230;28;20186;-78
2023/03/07 03:26:00;;;;;;;7.88;5.13;;;;;;;;;;5098911;28;20227;-77
2023/03/07 03:28:26;;;;;;;8.23;6.13;;;;;;;;;;5098237;28;20177;-78
2023/03/07 03:31:00;;;;;;;8.88;5.85;;;;;;;;;;5098642;28;20176;-78
2023/03/07 03:33:28;;;;;;;7.32;5.53;;;;;;;;;;5099094;28;20235;-78
2023/03/07 03:35:54;;;;;;;8.35;5.90;;;;;;;;;;5098192;28;20178;-78
2023/03/07 03:38:20;;;;;;;8.15;5.53;;;;;;;;;;5098455;28;20617;-78
2023/03/07 03:40:46;;;;;;;8.77;6.35;;;;;;;;;;5098130;28;20177;-77
2023/03/07 03:43:12;;;;;;;8.80;6.63;;;;;;;;;;5098302;28;20226;-77
2023/03/07 03:45:39;;;;;;;7.10;6.40;;;;;;;;;;5098071;28;20523;-77
2023/03/07 03:48:05;;;;;;;9.82;6.43;;;;;;;;;;5098194;28;20267;-77
2023/03/07 03:50:31;;;;;;;15.82;6.95;;;;;;;;;;5097750;28;20518;-77
2023/03/07 03:52:57;;;;;;;12.52;8.15;;;;;;;;;;5098258;28;20229;-78
2023/03/07 03:55:23;;;;;;;7.25;5.05;;;;;;;;;;5097776;28;20179;-77
2023/03/07 03:57:49;;;;;;;8.82;7.18;;;;;;;;;;5097617;28;20210;-77
2023/03/07 04:00:18;;;;;;;7.95;6.05;;;;;;;;;;5098128;28;20186;-77
2023/03/07 04:02:44;;;;;;;9.70;6.57;;;;;;;;;;5097310;28;20208;-77
2023/03/07 04:05:10;;;;;;;10.95;8.27;;;;;;;;;;5097908;28;20227;-77
2023/03/07 04:07:36;;;;;;;8.95;7.40;;;;;;;;;;5098076;28;20527;-78
2023/03/07 04:10:03;;;;;;;10.63;8.05;;;;;;;;;;5097007;28;20187;-78
2023/03/07 04:12:30;;;;;;;10.55;7.70;;;;;;;;;;5098182;28;20184;-77
2023/03/07 04:14:56;;;;;;;10.02;7.07;;;;;;;;;;5098120;28;20196;-78
2023/03/07 04:17:22;;;;;;;8.68;6.32;;;;;;;;;;5098089;28;20188;-78
2023/03/07 04:19:48;;;;;;;8.50;6.55;;;;;;;;;;5097202;28;20679;-77
2023/03/07 04:22:14;;;;;;;12.57;7.38;;;;;;;;;;5097413;28;20200;-78
2023/03/07 04:24:40;;;;;;;11.98;8.32;;;;;;;;;;5097066;28;20183;-78
2023/03/07 04:27:06;;;;;;;11.60;8.47;;;;;;;;;;5097420;28;20697;-77
2023/03/07 04:29:32;;;;;;;12.38;9.55;;;;;;;;;;5096593;28;20462;-79
2023/03/07 04:31:58;;;;;;;13.82;9.65;;;;;;;;;;5097035;28;20577;-77
2023/03/07 04:34:24;;;;;;;13.73;7.60;;;;;;;;;;5097674;28;20180;-78
2023/03/07 04:36:50;;;;;;;9.43;7.97;;;;;;;;;;5097065;28;20176;-77
2023/03/07 04:39:16;;;;;;;12.07;7.97;;;;;;;;;;5096794;28;20228;-77
2023/03/07 04:41:42;;;;;;;12.70;8.85;;;;;;;;;;5097237;28;20203;-78
2023/03/07 04:44:08;;;;;;;11.30;9.48;;;;;;;;;;5097317;28;20250;-78
2023/03/07 04:46:35;;;;;;;10.50;6.85;;;;;;;;;;5097675;28;20185;-78
2023/03/07 04:49:01;;;;;;;14.32;9.25;;;;;;;;;;5097327;28;20185;-78
2023/03/07 04:51:27;;;;;;;11.27;8.20;;;;;;;;;;5097339;28;20194;-78
2023/03/07 04:53:53;;;;;;;12.27;8.05;;;;;;;;;;5096340;28;20180;-79
2023/03/07 04:56:19;;;;;;;14.13;8.90;;;;;;;;;;5097376;28;20176;-78
2023/03/07 04:58:45;;;;;;;14.87;8.50;;;;;;;;;;5096777;28;20180;-78
2023/03/07 05:01:11;;;;;;;13.50;9.80;;;;;;;;;;5079266;28;20481;-79
2023/03/07 05:03:37;;;;;;;12.82;8.15;;;;;;;;;;5096716;28;20199;-78
2023/03/07 05:06:07;;;;;;;10.13;8.07;;;;;;;;;;5096584;28;20250;-78
2023/03/07 05:08:33;;;;;;;12.30;9.18;;;;;;;;;;5096661;28;20175;-82
2023/03/07 05:10:59;;;;;;;11.65;8.30;;;;;;;;;;5096657;28;20178;-78
2023/03/07 05:13:25;;;;;;;11.63;7.88;;;;;;;;;;5097025;28;20172;-79
2023/03/07 05:15:52;;;;;;;15.18;9.77;;;;;;;;;;5096851;28;20186;-78
2023/03/07 05:18:18;;;;;;;13.52;9.15;;;;;;;;;;5096746;28;20180;-78
2023/03/07 05:20:44;;;;;;;11.77;9.52;;;;;;;;;;5096448;28;20595;-78
2023/03/07 05:23:10;;;;;;;12.50;8.85;;;;;;;;;;5096848;28;20242;-77
2023/03/07 05:25:36;;;;;;;16.08;9.82;;;;;;;;;;5061673;28;20275;-77
2023/03/07 05:28:02;;;;;;;14.18;9.75;;;;;;;;;;5097089;28;20179;-76
2023/03/07 05:30:28;;;;;;;15.15;10.90;;;;;;;;;;5096489;28;20176;-77
2023/03/07 05:32:54;;;;;;;12.77;9.13;;;;;;;;;;5096316;28;20189;-77
2023/03/07 05:35:23;;;;;;;16.05;11.10;;;;;;;;;;5096475;28;20179;-77
2023/03/07 05:37:49;;;;;;;13.25;7.13;;;;;;;;;;5078910;28;20519;-78
2023/03/07 05:40:15;;;;;;;13.07;10.07;;;;;;;;;;5078248;28;20189;-77
2023/03/07 05:42:41;;;;;;;18.60;10.10;;;;;;;;;;5095830;28;20233;-78
2023/03/07 05:45:08;;;;;;;15.80;11.30;;;;;;;;;;5096930;28;20203;-78
2023/03/07 05:47:34;;;;;;;15.90;11.25;;;;;;;;;;5096556;28;20210;-77
2023/03/07 05:50:00;;;;;;;14.30;10.23;;;;;;;;;;5079238;28;20165;-77
2023/03/07 05:52:26;;;;;;;15.73;10.53;;;;;;;;;;5100536;28;20176;-78
2023/03/07 05:54:52;;;;;;;15.82;9.82;;;;;;;;;;5082320;28;20454;-79
2023/03/07 05:57:18;;;;;;;19.02;10.48;;;;;;;;;;5100280;28;20217;-77
2023/03/07 05:59:44;;;;;;;15.47;10.57;;;;;;;;;;5100061;28;20173;-77
2023/03/07 06:02:10;;;;;;;14.07;10.00;;;;;;;;;;5100191;28;20471;-78
2023/03/07 06:04:36;;;;;;;14.52;10.80;;;;;;;;;;5099767;28;20459;-77
2023/03/07 06:07:02;;;;;;;13.15;8.57;;;;;;;;;;5082389;28;20251;-77
2023/03/07 06:09:28;;;;;;;13.57;9.75;;;;;;;;;;5100022;28;20229;-77
2023/03/07 06:11:54;;;;;;;13.68;9.90;;;;;;;;;;5099894;28;20183;-78
2023/03/07 06:14:21;;;;;;;14.13;10.15;;;;;;;;;;5100522;28;20168;-78
2023/03/07 06:16:47;;;;;;;14.63;10.05;;;;;;;;;;5081731;28;20180;-78
2023/03/07 06:19:13;;;;;;;14.55;10.10;;;;;;;;;;5099363;28;20194;-79
2023/03/07 06:21:39;;;;;;;17.98;11.13;;;;;;;;;;5099553;28;20200;-79
2023/03/07 06:24:06;;;;;;;14.63;9.50;;;;;;;;;;5099873;28;20531;-78
2023/03/07 06:26:32;;;;;;;15.30;10.10;;;;;;;;;;5100109;28;20223;-78
2023/03/07 06:28:58;;;;;;;14.45;9.60;;;;;;;;;;5099973;28;20648;-78
2023/03/07 06:31:24;;;;;;;15.50;10.05;;;;;;;;;;5100362;28;20184;-78
2023/03/07 06:33:50;;;;;;;8.68;6.40;;;;;;;;;;5099630;28;20182;-78
2023/03/07 06:36:17;;;;;;;15.55;10.13;;;;;;;;;;5100036;28;20187;-79
2023/03/07 06:38:43;;;;;;;14.73;8.70;;;;;;;;;;5099906;28;20168;-78
2023/03/07 06:41:09;;;;;;;17.13;9.95;;;;;;;;;;5100038;28;20171;-78
2023/03/07 06:43:36;;;;;;;14.82;10.25;;;;;;;;;;5099429;28;20178;-78
2023/03/07 06:46:02;;;;;;;13.48;8.88;;;;;;;;;;5099615;28;20164;-78
2023/03/07 06:48:28;;;;;;;13.10;8.60;;;;;;;;;;5099498;28;20184;-78
2023/03/07 06:50:54;;;;;;;20.38;10.85;;;;;;;;;;5099830;28;20230;-78
2023/03/07 06:53:20;;;;;;;16.23;9.80;;;;;;;;;;5099132;28;20578;-78
2023/03/07 06:55:50;;;;;;;15.50;8.98;;;;;;;;;;5099738;28;20226;-77
2023/03/07 06:58:17;;;;;;;16.00;10.20;;;;;;;;;;5081420;28;20167;-77
2023/03/07 07:00:43;;;;;;;12.63;8.32;;;;;;;;;;5099485;28;20184;-78
2023/03/07 07:03:12;;;;;;;14.43;8.55;;;;;;;;;;5080667;28;20241;-77
2023/03/07 07:05:38;;;;;;;11.57;8.60;;;;;;;;;;5099722;28;20219;-77
2023/03/07 07:08:04;;;;;;;14.50;9.38;;;;;;;;;;5099264;28;20172;-78
2023/03/07 07:10:30;;;;;;;13.27;8.20;;;;;;;;;;5099527;28;20175;-78
2023/03/07 07:12:56;;;;;;;11.68;8.15;;;;;;;;;;5099314;28;20179;-77
2023/03/07 07:15:23;;;;;;;9.55;7.05;;;;;;;;;;5098797;28;20657;-78
2023/03/07 07:17:52;;;;;;;7.10;6.40;;;;;;;;;;5099303;28;20167;-78
2023/03/07 07:20:18;;;;;;;11.25;8.27;;;;;;;;;;5099512;28;20215;-77
2023/03/07 07:22:44;;;;;;;12.60;9.30;;;;;;;;;;5098789;28;20204;-78
2023/03/07 07:25:11;;;;;;;12.60;7.77;;;;;;;;;;5099788;28;20190;-77
2023/03/07 07:27:37;;;;;;;8.15;5.57;;;;;;;;;;5099292;28;20865;-77
2023/03/07 07:30:06;;;;;;;8.60;6.45;;;;;;;;;;5098683;28;20247;-78
2023/03/07 07:32:32;;;;;;;12.60;8.23;;;;;;;;;;5080966;28;20181;-78
2023/03/07 07:34:58;;;;;;;11.18;8.02;;;;;;;;;;5098552;28;20187;-77
2023/03/07 07:37:24;;;;;;;11.70;7.27;;;;;;;;;;5098508;28;20538;-78
2023/03/07 07:39:50;;;;;;;11.32;7.82;;;;;;;;;;5098490;28;20406;-78
2023/03/07 07:42:16;;;;;;;9.40;5.70;;;;;;;;;;5098457;28;20204;-78
2023/03/07 07:44:42;;;;;;;10.60;8.00;;;;;;;;;;5098178;28;20267;-80
2023/03/07 07:47:09;;;;;;;9.30;7.00;;;;;;;;;;5098833;28;20180;-78
2023/03/07 07:49:35;;;;;;;7.85;6.05;;;;;;;;;;5098114;28;20232;-78
2023/03/07 07:52:01;;;;;;;9.80;6.47;;;;;;;;;;5098222;28;20207;-78
2023/03/07 07:54:27;;;;;;;7.30;6.03;;;;;;;;;;5098592;28;20402;-78
2023/03/07 07:56:53;;;;;;;10.95;5.32;;;;;;;;;;5098219;28;20169;-77
2023/03/07 07:59:19;;;;;;;10.05;6.65;;;;;;;;;;5098406;28;20579;-77
2023/03/07 08:01:45;;;;;;;8.93;6.35;;;;;;;;;;5098047;28;20236;-78
2023/03/07 08:04:11;;;;;;;6.75;4.93;;;;;;;;;;5097689;28;20652;-78
2023/03/07 08:06:38;;;;;;;4.80;3.95;;;;;;;;;;5098274;28;20180;-78
2023/03/07 08:09:04;;;;;;;7.05;4.63;;;;;;;;;;5079841;28;20184;-78
2023/03/07 08:11:30;;;;;;;10.27;6.30;;;;;;;;;;5097637;28;20648;-78
2023/03/07 08:13:56;;;;;;;7.20;5.03;;;;;;;;;;5097969;28;20172;-78
2023/03/07 08:16:23;;;;;;;8.50;6.13;;;;;;;;;;5097515;28;20189;-78
2023/03/07 08:18:53;;;;;;;6.03;5.07;;;;;;;;;;5097520;28;20234;-79
2023/03/07 08:21:20;;;;;;;7.43;5.78;;;;;;;;;;5097480;28;20204;-79
2023/03/07 08:23:46;;;;;;;6.93;4.65;;;;;;;;;;5097252;28;20208;-79
2023/03/07 08:26:12;;;;;;;4.53;3.58;;;;;;;;;;5097800;28;20250;-77
2023/03/07 08:28:38;;;;;;;5.80;4.13;;;;;;;;;;5098017;28;20499;-78
2023/03/07 08:31:10;;;;;;;7.00;5.20;;;;;;;;;;5097571;28;20176;-79
2023/03/07 08:33:36;;;;;;;6.60;5.03;;;;;;;;;;5097699;28;20179;-78
2023/03/07 08:36:02;;;;;;;7.18;5.70;;;;;;;;;;5097477;28;20179;-78
2023/03/07 08:38:28;;;;;;;5.45;4.25;;;;;;;;;;5097495;28;20259;-78
2023/03/07 08:40:54;;;;;;;10.70;6.25;;;;;;;;;;5096976;28;20203;-78
2023/03/07 08:43:20;;;;;;;8.82;6.10;;;;;;;;;;5097289;28;20219;-78
2023/03/07 08:45:50;;;;;;;8.88;6.38;;;;;;;;;;5079261;28;20175;-80
2023/03/07 08:48:16;;;;;;;6.65;5.45;;;;;;;;;;5097692;28;20164;-78
2023/03/07 08:50:42;;;;;;;9.68;5.50;;;;;;;;;;5078767;28;20243;-78
2023/03/07 08:53:08;;;;;;;6.50;4.78;;;;;;;;;;5078325;28;20180;-78
2023/03/07 08:55:35;;;;;;;6.97;4.65;;;;;;;;;;5097342;28;20533;-78
2023/03/07 08:58:01;;;;;;;6.75;4.75;;;;;;;;;;5062428;28;20270;-78
2023/03/07 09:00:27;;;;;;;7.65;5.22;;;;;;;;;;5079906;28;20176;-78
2023/03/07 09:02:57;;;;;;;8.02;4.70;;;;;;;;;;5096383;28;20677;-79
2023/03/07 09:05:23;;;;;;;6.97;5.20;;;;;;;;;;5097689;28;20237;-78
2023/03/07 09:07:49;;;;;;;7.03;5.07;;;;;;;;;;5097095;28;20184;-79
2023/03/07 09:10:16;;;;;;;5.72;5.13;;;;;;;;;;5097159;28;20176;-78
2023/03/07 09:12:42;;;;;;;8.15;6.03;;;;;;;;;;5097980;28;20617;-78
2023/03/07 09:15:08;;;;;;;9.32;6.20;;;;;;;;;;5078341;28;20191;-79
2023/03/07 09:17:34;;;;;;;6.97;5.40;;;;;;;;;;5096450;28;20172;-78
2023/03/07 09:20:00;;;;;;;8.07;6.25;;;;;;;;;;5078416;28;20229;-79
2023/03/07 09:22:27;;;;;;;9.18;5.68;;;;;;;;;;5078370;28;20206;-78
2023/03/07 09:24:53;;;;;;;7.18;5.68;;;;;;;;;;5096395;28;20168;-79
2023/03/07 09:27:19;;;;;;;7.70;6.30;;;;;;;;;;5097422;28;20187;-78
2023/03/07 09:29:46;;;;;;;7.40;6.05;;;;;;;;;;5097119;28;20184;-79
2023/03/07 09:32:12;;;;;;;10.93;7.32;;;;;;;;;;5096790;28;20203;-78
2023/03/07 09:34:38;;;;;;;7.05;5.80;;;;;;;;;;5096229;28;20595;-79
2023/03/07 09:37:04;;;;;;;8.52;6.15;;;;;;;;;;5096437;28;20557;-79
2023/03/07 09:39:31;;;;;;;13.27;6.53;;;;;;;;;;5078463;28;20195;-79
2023/03/07 09:42:16;;;;;;;10.55;6.80;;;;;;;;;;5096177;28;20602;-79
2023/03/07 09:44:45;;;;;;;9.60;6.88;;;;;;;;;;5096460;28;20531;-78
2023/03/07 09:47:26;;;;;;;8.45;5.00;;;;;;;;;;5095741;28;20175;-79
2023/03/07 09:49:53;;;;;;;9.68;5.88;;;;;;;;;;5096906;28;20203;-79
2023/03/07 09:52:23;;;;;;;12.05;5.85;;;;;;;;;;5079156;28;20191;-79
2023/03/07 09:54:52;;;;;;;14.82;6.13;;;;;;;;;;5096434;28;20219;-78
2023/03/07 09:57:22;;;;;;;15.77;7.60;;;;;;;;;;5096827;28;20180;-79
2023/03/07 09:59:50;;;;;;;11.50;6.97;;;;;;;;;;5077786;28;20211;-79
2023/03/07 10:02:19;;;;;;;8.13;5.63;;;;;;;;;;5096137;28;20212;-79
2023/03/07 10:04:54;;;;;;;9.18;6.65;;;;;;;;;;5096170;28;20231;-79
2023/03/07 10:07:21;;;;;;;12.32;6.35;;;;;;;;;;5096609;28;20176;-79
2023/03/07 10:09:49;;;;;;;6.38;4.85;;;;;;;;;;5096665;28;20239;-78
2023/03/07 10:12:26;;;;;;;6.45;5.13;;;;;;;;;;5096817;28;20262;-78
2023/03/07 10:15:05;;;;;;;6.13;4.45;;;;;;;;;;5096447;28;20176;-84
2023/03/07 10:17:43;;;;;;;7.47;5.72;;;;;;;;;;5079111;28;20176;-78
2023/03/07 10:20:22;;;;;;;8.00;5.13;;;;;;;;;;5096614;28;20174;-78
2023/03/07 10:22:51;;;;;;;7.13;5.35;;;;;;;;;;5096555;28;20215;-78
2023/03/07 10:25:23;;;;;;;9.05;5.38;;;;;;;;;;5096322;28;20168;-77
2023/03/07 10:27:52;;;;;;;7.70;5.35;;;;;;;;;;5095930;28;20242;-78
2023/03/07 10:30:19;;;;;;;5.55;4.65;;;;;;;;;;5096792;28;20172;-77
2023/03/07 10:32:46;;;;;;;7.03;5.40;;;;;;;;;;5096597;28;20176;-77
2023/03/07 10:35:15;;;;;;;7.72;5.40;;;;;;;;;;5096217;28;20574;-78
2023/03/07 10:37:44;;;;;;;9.65;6.15;;;;;;;;;;5098510;28;20238;-78
2023/03/07 10:40:30;;;;;;;7.80;4.82;;;;;;;;;;5100285;28;20176;-77
2023/03/07 10:42:57;;;;;;;10.38;6.93;;;;;;;;;;5099990;28;20224;-78
2023/03/07 10:45:24;;;;;;;7.18;5.70;;;;;;;;;;5099778;28;20185;-78
2023/03/07 10:47:50;;;;;;;7.72;5.88;;;;;;;;;;5100357;28;20213;-77
2023/03/07 10:50:35;;;;;;;5.47;4.82;;;;;;;;;;5099992;28;20168;-77
2023/03/07 10:53:03;;;;;;;8.27;6.57;;;;;;;;;;5099984;28;20175;-77
2023/03/07 10:55:34;;;;;;;9.70;6.63;;;;;;;;;;5099947;28;20229;-78
2023/03/07 10:58:12;;;;;;;10.90;7.47;;;;;;;;;;5099548;28;20179;-78
2023/03/07 11:00:38;;;;;;;8.95;6.70;;;;;;;;;;5099868;28;20259;-77
2023/03/07 11:03:04;;;;;;;9.85;7.45;;;;;;;;;;5099208;28;20694;-78
2023/03/07 11:05:31;;;;;;;7.60;5.15;;;;;;;;;;5099483;28;20235;-78
2023/03/07 11:07:58;;;;;;;10.65;7.70;;;;;;;;;;5098699;28;20500;-78
2023/03/07 11:10:32;;;;;;;15.50;7.85;;;;;;;;;;5098917;28;20515;-78
2023/03/07 11:12:58;;;;;;;7.97;6.45;;;;;;;;;;5098344;28;20175;-78
2023/03/07 11:15:26;;;;;;;11.50;7.00;;;;;;;;;;5098973;28;20168;-77
2023/03/07 11:17:52;;;;;;;8.55;5.78;;;;;;;;;;5098918;28;20167;-78
2023/03/07 11:20:23;;;;;;;9.82;6.80;;;;;;;;;;5081272;28;20172;-78
2023/03/07 11:22:50;;;;;;;10.90;7.88;;;;;;;;;;5099248;28;20208;-77
2023/03/07 11:25:24;;;;;;;10.13;6.28;;;;;;;;;;5099322;28;20178;-77
2023/03/07 11:27:52;;;;;;;9.20;7.47;;;;;;;;;;5081710;28;20620;-78
2023/03/07 11:30:20;;;;;;;10.30;8.20;;;;;;;;;;5099399;28;20184;-77
2023/03/07 11:32:52;;;;;;;10.75;7.68;;;;;;;;;;5081294;28;20180;-77
2023/03/07 11:35:23;;;;;;;9.80;7.00;;;;;;;;;;5098914;28;20176;-77
2023/03/07 11:38:03;;;;;;;10.43;8.05;;;;;;;;;;5098744;28;20160;-77
2023/03/07 11:40:29;;;;;;;10.68;7.95;;;;;;;;;;5098446;28;20632;-78
2023/03/07 11:43:24;;;;;;;8.60;5.93;;;;;;;;;;5098516;28;20212;-77
2023/03/07 11:45:56;;;;;;;7.57;5.47;;;;;;;;;;5081017;28;20573;-78
2023/03/07 11:48:36;;;;;;;11.43;7.60;;;;;;;;;;5098073;28;20168;-77
2023/03/07 11:51:03;;;;;;;10.35;7.38;;;;;;;;;;5098358;28;20220;-78
2023/03/07 11:53:35;;;;;;;10.02;6.80;;;;;;;;;;5098394;28;20172;-77
2023/03/07 11:56:17;;;;;;;13.05;7.93;;;;;;;;;;5098365;28;20172;-77
2023/03/07 11:59:01;;;;;;;11.50;8.50;;;;;;;;;;5098335;28;20535;-77
2023/03/07 12:01:48;;;;;;;15.13;8.75;;;;;;;;;;5098764;28;20203;-77
2023/03/07 12:04:29;;;;;;;13.70;8.70;;;;;;;;;;5097837;28;20519;-77
2023/03/07 12:07:09;;;;;;;11.30;7.35;;;;;;;;;;5098968;28;20153;-78
2023/03/07 12:09:35;;;;;;;11.45;7.75;;;;;;;;;;5080348;28;20263;-77
2023/03/07 12:12:20;;;;;;;11.73;9.00;;;;;;;;;;5098100;28;20263;-78
2023/03/07 12:14:52;;;;;;;12.35;8.95;;;;;;;;;;5098299;28;20399;-77
2023/03/07 12:17:18;;;;;;;12.20;8.82;;;;;;;;;;5097940;28;20177;-78
2023/03/07 12:19:44;;;;;;;11.20;8.40;;;;;;;;;;5098379;28;20164;-77
2023/03/07 12:22:20;;;;;;;19.70;10.70;;;;;;;;;;5079447;28;20211;-78
2023/03/07 12:24:54;;;;;;;17.52;9.85;;;;;;;;;;5098161;28;20574;-77
2023/03/07 12:27:25;;;;;;;12.55;8.45;;;;;;;;;;5097709;28;20176;-77
2023/03/07 12:29:53;;;;;;;14.80;10.73;;;;;;;;;;5098018;28;20658;-78
2023/03/07 12:32:23;;;;;;;17.45;9.90;;;;;;;;;;5097604;28;20192;-77
2023/03/07 12:34:58;;;;;;;14.43;10.07;;;;;;;;;;5098289;28;20240;-77
2023/03/07 12:37:27;;;;;;;12.20;8.00;;;;;;;;;;5097723;28;20225;-78
2023/03/07 12:40:01;;;;;;;10.60;6.57;;;;;;;;;;5098243;28;20172;-77
2023/03/07 12:42:46;;;;;;;8.43;6.85;;;;;;;;;;5079185;28;20220;-78
2023/03/07 12:45:14;;;;;;;7.97;7.18;;;;;;;;;;5097238;28;20171;-78
2023/03/07 12:47:59;;;;;;;8.15;6.32;;;;;;;;;;5097614;28;20204;-78
2023/03/07 12:50:43;;;;;;;7.63;5.20;;;;;;;;;;5096672;28;20173;-78
2023/03/07 12:53:12;;;;;;;7.32;5.18;;;;;;;;;;5097558;28;20262;-78
2023/03/07 12:55:39;;;;;;;6.38;5.13;;;;;;;;;;5097431;28;20179;-78
2023/03/07 12:58:24;;;;;;;7.95;5.00;;;;;;;;;;5096898;28;20165;-78
2023/03/07 13:00:54;;;;;;;6.15;4.07;;;;;;;;;;5096367;28;20206;-78
2023/03/07 13:03:37;;;;;;;7.10;4.53;;;;;;;;;;5096237;28;20205;-78
2023/03/07 13:06:03;;;;;;;4.82;4.22;;;;;;;;;;5078458;28;20233;-80
2023/03/07 13:08:29;;;;;;;9.55;4.32;;;;;;;;;;5097168;28;20186;-78
2023/03/07 13:10:56;;;;;;;5.43;4.10;;;;;;;;;;5078618;28;20273;-78
2023/03/07 13:13:40;;;;;;;6.07;3.95;;;;;;;;;;5078895;28;20191;-78
2023/03/07 13:16:07;;;;;;;4.88;3.70;;;;;;;;;;5097191;28;20264;-78
2023/03/07 13:18:33;;;;;;;4.88;3.97;;;;;;;;;;5097151;28;20256;-78
2023/03/07 13:21:10;;;;;;;5.75;3.42;;;;;;;;;;5079242;28;20341;-78
2023/03/07 13:23:36;;;;;;;3.83;3.20;;;;;;;;;;5097002;28;20248;-78
2023/03/07 13:26:04;;;;;;;3.38;2.97;;;;;;;;;;5096702;28;20175;-78
2023/03/07 13:28:35;;;;;;;3.90;3.22;;;;;;;;;;5078694;28;20503;-78
2023/03/07 13:31:12;;;;;;;3.35;2.55;;;;;;;;;;5096848;28;20167;-78
2023/03/07 13:33:38;;;;;;;4.40;2.67;;;;;;;;;;5096803;28;20182;-77
2023/03/07 13:36:04;;;;;;;4.38;2.45;;;;;;;;;;5078550;28;20244;-79
2023/03/07 13:38:30;;;;;;;3.20;2.53;;;;;;;;;;5097428;28;20180;-77
2023/03/07 13:41:05;;;;;;;2.45;2.22;;;;;;;;;;5096592;28;20283;-77
2023/03/07 13:43:34;;;;;;;4.90;3.05;;;;;;;;;;5096801;28;20221;-78
2023/03/07 13:46:00;;;;;;;2.97;2.72;;;;;;;;;;5096613;28;20170;-78
2023/03/07 13:48:26;;;;;;;2.38;2.17;;;;;;;;;;5096691;28;20172;-78
2023/03/07 13:50:55;;;;;;;3.08;2.78;;;;;;;;;;5078732;28;20190;-78
2023/03/07 13:53:30;;;;;;;5.22;3.00;;;;;;;;;;5096377;28;20175;-78
2023/03/07 13:55:56;;;;;;;2.25;2.05;;;;;;;;;;5096851;28;20599;-78
2023/03/07 13:58:25;;;;;;;1.90;1.80;;;;;;;;;;5096771;28;20179;-78
2023/03/07 14:00:57;;;;;;;1.55;1.45;;;;;;;;;;5096867;28;20179;-78
2023/03/07 14:03:25;;;;;;;1.80;1.70;;;;;;;;;;5096137;28;20203;-78
2023/03/07 14:05:51;;;;;;;2.78;2.10;;;;;;;;;;5096435;28;20220;-78
2023/03/07 14:08:19;;;;;;;3.97;2.30;;;;;;;;;;5095808;28;20530;-78
2023/03/07 14:10:46;;;;;;;5.20;2.90;;;;;;;;;;5097076;28;20174;-78
2023/03/07 14:13:12;;;;;;;3.67;3.30;;;;;;;;;;5100704;28;20218;-78
2023/03/07 14:15:58;;;;;;;5.78;4.75;;;;;;;;;;5101036;28;20179;-79
2023/03/07 14:18:24;;;;;;;8.80;5.82;;;;;;;;;;5059089;28;20187;-78
2023/03/07 14:20:56;;;;;;;11.18;7.07;;;;;;;;;;5100515;28;20186;-78
2023/03/07 14:23:35;;;;;;;14.10;8.32;;;;;;;;;;5081761;28;20218;-78
2023/03/07 14:26:14;;;;;;;12.23;8.10;;;;;;;;;;5100187;28;20171;-78
2023/03/07 14:29:00;;;;;;;13.32;7.95;;;;;;;;;;5081702;28;20225;-78
2023/03/07 14:31:30;;;;;;;13.63;9.85;;;;;;;;;;5099697;28;20179;-78
2023/03/07 14:33:56;;;;;;;12.90;8.77;;;;;;;;;;5100125;28;20181;-78
2023/03/07 14:36:24;;;;;;;12.52;9.15;;;;;;;;;;5081651;28;20179;-77
2023/03/07 14:38:51;;;;;;;14.48;9.60;;;;;;;;;;5065467;28;20179;-77
2023/03/07 14:41:35;;;;;;;13.95;8.88;;;;;;;;;;5099777;28;20171;-77
2023/03/07 14:44:19;;;;;;;13.00;9.00;;;;;;;;;;5100250;28;20174;-77